sensor_id;sensor_type;location;lat;lon;timestamp;P1;durP1;ratioP1;P2;durP2;ratioP2
72715;SDS011;60830;64.560;40.542;2022-10-17T00:01:47;12.48;;;6.18;;
72715;SDS011;60830;64.560;40.542;2022-10-17T00:04:13;7.28;;;5.82;;
72715;SDS011;60830;64.560;40.542;2022-10-17T00:06:40;8.18;;;5.22;;
72715;SDS011;60830;64.560;40.542;2022-10-17T00:09:06;7.32;;;5.93;;
72715;SDS011;60830;64.560;40.542;2022-10-17T00:11:32;9.18;;;5.80;;
72715;SDS011;60830;64.560;40.542;2022-10-17T00:13:58;8.52;;;4.82;;
72715;SDS011;60830;64.560;40.542;2022-10-17T00:16:31;11.15;;;4.72;;
72715;SDS011;60830;64.560;40.542;2022-10-17T00:18:58;5.18;;;4.32;;
72715;SDS011;60830;64.560;40.542;2022-10-17T00:21:25;6.53;;;3.42;;
72715;SDS011;60830;64.560;40.542;2022-10-17T00:23:51;7.25;;;4.65;;
72715;SDS011;60830;64.560;40.542;2022-10-17T00:26:17;8.75;;;4.63;;
72715;SDS011;60830;64.560;40.542;2022-10-17T00:28:50;6.60;;;4.78;;
72715;SDS011;60830;64.560;40.542;2022-10-17T00:31:16;6.22;;;4.30;;
72715;SDS011;60830;64.560;40.542;2022-10-17T00:33:43;6.20;;;5.70;;
72715;SDS011;60830;64.560;40.542;2022-10-17T00:36:16;4.85;;;4.35;;
72715;SDS011;60830;64.560;40.542;2022-10-17T00:38:43;5.63;;;4.65;;
72715;SDS011;60830;64.560;40.542;2022-10-17T00:41:11;6.68;;;5.03;;
72715;SDS011;60830;64.560;40.542;2022-10-17T00:46:21;8.98;;;4.60;;
72715;SDS011;60830;64.560;40.542;2022-10-17T00:48:48;5.78;;;4.60;;
72715;SDS011;60830;64.560;40.542;2022-10-17T00:51:15;5.30;;;4.78;;
72715;SDS011;60830;64.560;40.542;2022-10-17T00:53:42;9.63;;;5.90;;
72715;SDS011;60830;64.560;40.542;2022-10-17T00:56:08;4.07;;;3.72;;
72715;SDS011;60830;64.560;40.542;2022-10-17T00:58:34;7.32;;;4.70;;
72715;SDS011;60830;64.560;40.542;2022-10-17T01:01:00;4.75;;;4.28;;
72715;SDS011;60830;64.560;40.542;2022-10-17T01:03:27;4.20;;;3.33;;
72715;SDS011;60830;64.560;40.542;2022-10-17T01:05:53;6.38;;;4.88;;
72715;SDS011;60830;64.560;40.542;2022-10-17T01:08:20;7.07;;;4.32;;
72715;SDS011;60830;64.560;40.542;2022-10-17T01:10:56;5.47;;;3.80;;
72715;SDS011;60830;64.560;40.542;2022-10-17T01:13:31;7.50;;;5.40;;
72715;SDS011;60830;64.560;40.542;2022-10-17T01:18:47;8.88;;;4.85;;
72715;SDS011;60830;64.560;40.542;2022-10-17T01:29:40;4.07;;;3.40;;
72715;SDS011;60830;64.560;40.542;2022-10-17T01:32:16;5.53;;;2.92;;
72715;SDS011;60830;64.560;40.542;2022-10-17T01:34:45;5.75;;;4.43;;
72715;SDS011;60830;64.560;40.542;2022-10-17T01:40:28;5.45;;;3.63;;
72715;SDS011;60830;64.560;40.542;2022-10-17T01:42:29;6.25;;;4.13;;
72715;SDS011;60830;64.560;40.542;2022-10-17T01:45:00;5.72;;;3.80;;
72715;SDS011;60830;64.560;40.542;2022-10-17T01:47:30;4.57;;;3.65;;
72715;SDS011;60830;64.560;40.542;2022-10-17T01:49:59;3.55;;;3.03;;
72715;SDS011;60830;64.560;40.542;2022-10-17T01:52:26;3.90;;;3.60;;
72715;SDS011;60830;64.560;40.542;2022-10-17T01:54:57;6.30;;;4.78;;
72715;SDS011;60830;64.560;40.542;2022-10-17T01:59:53;5.35;;;3.50;;
72715;SDS011;60830;64.560;40.542;2022-10-17T02:02:20;4.63;;;3.83;;
72715;SDS011;60830;64.560;40.542;2022-10-17T02:04:48;4.18;;;3.72;;
72715;SDS011;60830;64.560;40.542;2022-10-17T02:07:15;6.30;;;4.32;;
72715;SDS011;60830;64.560;40.542;2022-10-17T02:09:41;6.57;;;4.82;;
72715;SDS011;60830;64.560;40.542;2022-10-17T02:12:51;6.55;;;5.32;;
72715;SDS011;60830;64.560;40.542;2022-10-17T02:15:15;5.65;;;3.78;;
72715;SDS011;60830;64.560;40.542;2022-10-17T02:20:34;4.95;;;4.00;;
72715;SDS011;60830;64.560;40.542;2022-10-17T02:23:10;9.52;;;5.18;;
72715;SDS011;60830;64.560;40.542;2022-10-17T02:25:44;6.00;;;3.78;;
72715;SDS011;60830;64.560;40.542;2022-10-17T02:30:51;6.40;;;4.43;;
72715;SDS011;60830;64.560;40.542;2022-10-17T02:33:20;4.80;;;4.25;;
72715;SDS011;60830;64.560;40.542;2022-10-17T02:35:49;4.55;;;3.58;;
72715;SDS011;60830;64.560;40.542;2022-10-17T02:38:17;10.88;;;3.80;;
72715;SDS011;60830;64.560;40.542;2022-10-17T02:40:44;5.07;;;3.97;;
72715;SDS011;60830;64.560;40.542;2022-10-17T02:43:11;5.63;;;3.88;;
72715;SDS011;60830;64.560;40.542;2022-10-17T02:45:38;7.78;;;5.22;;
72715;SDS011;60830;64.560;40.542;2022-10-17T02:51:06;5.60;;;4.45;;
72715;SDS011;60830;64.560;40.542;2022-10-17T02:56:15;5.20;;;4.38;;
72715;SDS011;60830;64.560;40.542;2022-10-17T02:58:42;6.47;;;4.00;;
72715;SDS011;60830;64.560;40.542;2022-10-17T03:01:12;8.77;;;4.65;;
72715;SDS011;60830;64.560;40.542;2022-10-17T03:03:38;6.32;;;4.75;;
72715;SDS011;60830;64.560;40.542;2022-10-17T03:06:04;5.10;;;4.60;;
72715;SDS011;60830;64.560;40.542;2022-10-17T03:08:30;9.75;;;5.22;;
72715;SDS011;60830;64.560;40.542;2022-10-17T03:10:56;7.95;;;4.53;;
72715;SDS011;60830;64.560;40.542;2022-10-17T03:13:24;5.82;;;3.47;;
72715;SDS011;60830;64.560;40.542;2022-10-17T03:15:50;8.13;;;4.80;;
72715;SDS011;60830;64.560;40.542;2022-10-17T03:18:16;5.93;;;4.15;;
72715;SDS011;60830;64.560;40.542;2022-10-17T03:20:43;7.68;;;5.15;;
72715;SDS011;60830;64.560;40.542;2022-10-17T03:23:09;3.70;;;3.35;;
72715;SDS011;60830;64.560;40.542;2022-10-17T03:25:35;4.38;;;3.50;;
72715;SDS011;60830;64.560;40.542;2022-10-17T03:28:02;4.22;;;3.80;;
72715;SDS011;60830;64.560;40.542;2022-10-17T03:30:30;7.60;;;5.00;;
72715;SDS011;60830;64.560;40.542;2022-10-17T03:32:57;7.03;;;4.97;;
72715;SDS011;60830;64.560;40.542;2022-10-17T03:35:24;5.63;;;4.55;;
72715;SDS011;60830;64.560;40.542;2022-10-17T03:37:50;5.70;;;3.65;;
72715;SDS011;60830;64.560;40.542;2022-10-17T03:40:19;9.85;;;4.68;;
72715;SDS011;60830;64.560;40.542;2022-10-17T03:42:46;7.32;;;4.88;;
72715;SDS011;60830;64.560;40.542;2022-10-17T03:45:12;6.63;;;4.68;;
72715;SDS011;60830;64.560;40.542;2022-10-17T03:47:39;4.53;;;3.90;;
72715;SDS011;60830;64.560;40.542;2022-10-17T03:50:05;7.30;;;4.20;;
72715;SDS011;60830;64.560;40.542;2022-10-17T03:52:34;8.00;;;5.72;;
72715;SDS011;60830;64.560;40.542;2022-10-17T03:55:01;6.70;;;4.10;;
72715;SDS011;60830;64.560;40.542;2022-10-17T03:57:28;6.13;;;4.93;;
72715;SDS011;60830;64.560;40.542;2022-10-17T03:59:54;7.40;;;3.92;;
72715;SDS011;60830;64.560;40.542;2022-10-17T04:02:21;8.38;;;3.72;;
72715;SDS011;60830;64.560;40.542;2022-10-17T04:04:48;8.00;;;4.38;;
72715;SDS011;60830;64.560;40.542;2022-10-17T04:07:15;6.95;;;4.30;;
72715;SDS011;60830;64.560;40.542;2022-10-17T04:09:44;6.45;;;4.68;;
72715;SDS011;60830;64.560;40.542;2022-10-17T04:12:13;6.53;;;4.45;;
72715;SDS011;60830;64.560;40.542;2022-10-17T04:14:39;5.18;;;4.07;;
72715;SDS011;60830;64.560;40.542;2022-10-17T04:17:05;7.82;;;3.70;;
72715;SDS011;60830;64.560;40.542;2022-10-17T04:19:33;4.30;;;2.78;;
72715;SDS011;60830;64.560;40.542;2022-10-17T04:21:59;5.22;;;3.88;;
72715;SDS011;60830;64.560;40.542;2022-10-17T04:24:27;11.48;;;6.30;;
72715;SDS011;60830;64.560;40.542;2022-10-17T04:27:06;11.48;;;5.15;;
72715;SDS011;60830;64.560;40.542;2022-10-17T04:29:36;6.22;;;4.50;;
72715;SDS011;60830;64.560;40.542;2022-10-17T04:32:10;5.53;;;3.38;;
72715;SDS011;60830;64.560;40.542;2022-10-17T04:34:43;6.22;;;4.30;;
72715;SDS011;60830;64.560;40.542;2022-10-17T04:37:12;6.93;;;5.10;;
72715;SDS011;60830;64.560;40.542;2022-10-17T04:39:39;7.53;;;4.65;;
72715;SDS011;60830;64.560;40.542;2022-10-17T04:42:05;7.32;;;4.82;;
72715;SDS011;60830;64.560;40.542;2022-10-17T04:44:31;9.82;;;4.38;;
72715;SDS011;60830;64.560;40.542;2022-10-17T04:46:58;7.30;;;3.85;;
72715;SDS011;60830;64.560;40.542;2022-10-17T04:49:25;8.40;;;5.78;;
72715;SDS011;60830;64.560;40.542;2022-10-17T04:51:55;7.93;;;4.25;;
72715;SDS011;60830;64.560;40.542;2022-10-17T04:54:25;8.35;;;5.00;;
72715;SDS011;60830;64.560;40.542;2022-10-17T04:56:57;3.97;;;3.53;;
72715;SDS011;60830;64.560;40.542;2022-10-17T04:59:24;3.50;;;2.90;;
72715;SDS011;60830;64.560;40.542;2022-10-17T05:02:01;6.57;;;3.92;;
72715;SDS011;60830;64.560;40.542;2022-10-17T05:04:29;4.00;;;3.55;;
72715;SDS011;60830;64.560;40.542;2022-10-17T05:06:55;4.38;;;3.95;;
72715;SDS011;60830;64.560;40.542;2022-10-17T05:09:21;3.28;;;2.10;;
72715;SDS011;60830;64.560;40.542;2022-10-17T05:11:47;5.78;;;4.35;;
72715;SDS011;60830;64.560;40.542;2022-10-17T05:14:14;6.28;;;4.03;;
72715;SDS011;60830;64.560;40.542;2022-10-17T05:16:40;7.60;;;4.50;;
72715;SDS011;60830;64.560;40.542;2022-10-17T05:19:06;5.57;;;4.22;;
72715;SDS011;60830;64.560;40.542;2022-10-17T05:21:39;4.97;;;4.43;;
72715;SDS011;60830;64.560;40.542;2022-10-17T05:24:06;7.95;;;3.95;;
72715;SDS011;60830;64.560;40.542;2022-10-17T05:26:32;6.07;;;3.97;;
72715;SDS011;60830;64.560;40.542;2022-10-17T05:28:59;6.28;;;3.53;;
72715;SDS011;60830;64.560;40.542;2022-10-17T05:31:28;4.80;;;3.53;;
72715;SDS011;60830;64.560;40.542;2022-10-17T05:33:55;7.72;;;4.95;;
72715;SDS011;60830;64.560;40.542;2022-10-17T05:36:21;3.58;;;2.75;;
72715;SDS011;60830;64.560;40.542;2022-10-17T05:38:48;4.85;;;4.32;;
72715;SDS011;60830;64.560;40.542;2022-10-17T05:41:14;6.18;;;4.20;;
72715;SDS011;60830;64.560;40.542;2022-10-17T05:43:41;4.53;;;4.13;;
72715;SDS011;60830;64.560;40.542;2022-10-17T05:46:08;4.88;;;3.40;;
72715;SDS011;60830;64.560;40.542;2022-10-17T05:48:35;4.97;;;4.43;;
72715;SDS011;60830;64.560;40.542;2022-10-17T05:51:03;8.52;;;4.55;;
72715;SDS011;60830;64.560;40.542;2022-10-17T05:53:30;5.95;;;4.82;;
72715;SDS011;60830;64.560;40.542;2022-10-17T05:56:02;5.03;;;4.05;;
72715;SDS011;60830;64.560;40.542;2022-10-17T05:58:30;6.32;;;4.32;;
72715;SDS011;60830;64.560;40.542;2022-10-17T06:00:58;6.78;;;5.28;;
72715;SDS011;60830;64.560;40.542;2022-10-17T06:03:25;9.77;;;4.85;;
72715;SDS011;60830;64.560;40.542;2022-10-17T06:05:52;17.23;;;5.82;;
72715;SDS011;60830;64.560;40.542;2022-10-17T06:08:19;11.00;;;6.05;;
72715;SDS011;60830;64.560;40.542;2022-10-17T06:10:49;5.43;;;4.35;;
72715;SDS011;60830;64.560;40.542;2022-10-17T06:13:16;7.35;;;5.40;;
72715;SDS011;60830;64.560;40.542;2022-10-17T06:15:43;10.43;;;5.90;;
72715;SDS011;60830;64.560;40.542;2022-10-17T06:18:10;6.32;;;4.45;;
72715;SDS011;60830;64.560;40.542;2022-10-17T06:20:36;9.10;;;6.20;;
72715;SDS011;60830;64.560;40.542;2022-10-17T06:23:02;10.57;;;5.70;;
72715;SDS011;60830;64.560;40.542;2022-10-17T06:26:01;12.63;;;6.65;;
72715;SDS011;60830;64.560;40.542;2022-10-17T06:28:28;9.30;;;7.10;;
72715;SDS011;60830;64.560;40.542;2022-10-17T06:30:56;7.47;;;5.30;;
72715;SDS011;60830;64.560;40.542;2022-10-17T06:33:22;8.77;;;6.28;;
72715;SDS011;60830;64.560;40.542;2022-10-17T06:35:52;8.30;;;5.43;;
72715;SDS011;60830;64.560;40.542;2022-10-17T06:38:19;15.05;;;8.07;;
72715;SDS011;60830;64.560;40.542;2022-10-17T06:40:45;8.38;;;5.55;;
72715;SDS011;60830;64.560;40.542;2022-10-17T06:43:12;10.25;;;6.55;;
72715;SDS011;60830;64.560;40.542;2022-10-17T06:45:55;5.43;;;4.07;;
72715;SDS011;60830;64.560;40.542;2022-10-17T06:48:35;4.78;;;4.03;;
72715;SDS011;60830;64.560;40.542;2022-10-17T06:51:21;17.25;;;12.30;;
72715;SDS011;60830;64.560;40.542;2022-10-17T06:53:52;9.98;;;8.40;;
72715;SDS011;60830;64.560;40.542;2022-10-17T06:56:53;46.80;;;17.67;;
72715;SDS011;60830;64.560;40.542;2022-10-17T06:59:39;39.97;;;17.58;;
72715;SDS011;60830;64.560;40.542;2022-10-17T07:02:26;24.05;;;10.77;;
72715;SDS011;60830;64.560;40.542;2022-10-17T07:04:53;27.55;;;10.85;;
72715;SDS011;60830;64.560;40.542;2022-10-17T07:07:19;33.22;;;15.25;;
72715;SDS011;60830;64.560;40.542;2022-10-17T07:09:45;44.40;;;17.88;;
72715;SDS011;60830;64.560;40.542;2022-10-17T07:12:13;41.42;;;14.82;;
72715;SDS011;60830;64.560;40.542;2022-10-17T07:14:43;23.90;;;12.57;;
72715;SDS011;60830;64.560;40.542;2022-10-17T07:17:12;15.02;;;8.38;;
72715;SDS011;60830;64.560;40.542;2022-10-17T07:19:38;54.17;;;16.25;;
72715;SDS011;60830;64.560;40.542;2022-10-17T07:22:06;31.65;;;11.75;;
72715;SDS011;60830;64.560;40.542;2022-10-17T07:24:34;25.83;;;11.70;;
72715;SDS011;60830;64.560;40.542;2022-10-17T07:27:14;23.42;;;9.52;;
72715;SDS011;60830;64.560;40.542;2022-10-17T07:29:40;27.33;;;9.63;;
72715;SDS011;60830;64.560;40.542;2022-10-17T07:32:16;6.70;;;4.65;;
72715;SDS011;60830;64.560;40.542;2022-10-17T07:34:42;13.73;;;5.75;;
72715;SDS011;60830;64.560;40.542;2022-10-17T07:37:09;24.70;;;12.35;;
72715;SDS011;60830;64.560;40.542;2022-10-17T07:39:37;12.57;;;5.28;;
72715;SDS011;60830;64.560;40.542;2022-10-17T07:42:04;13.63;;;6.50;;
72715;SDS011;60830;64.560;40.542;2022-10-17T07:44:33;9.25;;;5.75;;
72715;SDS011;60830;64.560;40.542;2022-10-17T07:47:00;8.15;;;6.18;;
72715;SDS011;60830;64.560;40.542;2022-10-17T07:49:27;26.15;;;9.95;;
72715;SDS011;60830;64.560;40.542;2022-10-17T07:51:54;19.88;;;9.48;;
72715;SDS011;60830;64.560;40.542;2022-10-17T07:54:20;18.88;;;7.68;;
72715;SDS011;60830;64.560;40.542;2022-10-17T07:56:46;9.23;;;5.10;;
72715;SDS011;60830;64.560;40.542;2022-10-17T07:59:16;12.13;;;4.78;;
72715;SDS011;60830;64.560;40.542;2022-10-17T08:01:42;15.70;;;6.30;;
72715;SDS011;60830;64.560;40.542;2022-10-17T08:04:08;5.63;;;3.58;;
72715;SDS011;60830;64.560;40.542;2022-10-17T08:06:34;6.88;;;3.03;;
72715;SDS011;60830;64.560;40.542;2022-10-17T08:09:00;10.20;;;3.35;;
72715;SDS011;60830;64.560;40.542;2022-10-17T08:11:26;18.52;;;8.10;;
72715;SDS011;60830;64.560;40.542;2022-10-17T08:13:52;17.45;;;5.57;;
72715;SDS011;60830;64.560;40.542;2022-10-17T08:16:18;25.73;;;8.50;;
72715;SDS011;60830;64.560;40.542;2022-10-17T08:18:44;26.23;;;7.00;;
72715;SDS011;60830;64.560;40.542;2022-10-17T08:21:11;19.55;;;6.82;;
72715;SDS011;60830;64.560;40.542;2022-10-17T08:23:38;20.88;;;8.82;;
72715;SDS011;60830;64.560;40.542;2022-10-17T08:26:05;18.67;;;6.57;;
72715;SDS011;60830;64.560;40.542;2022-10-17T08:28:33;29.20;;;9.52;;
72715;SDS011;60830;64.560;40.542;2022-10-17T08:31:03;21.20;;;7.55;;
72715;SDS011;60830;64.560;40.542;2022-10-17T08:33:30;18.52;;;6.07;;
72715;SDS011;60830;64.560;40.542;2022-10-17T08:35:58;15.98;;;6.35;;
72715;SDS011;60830;64.560;40.542;2022-10-17T08:38:25;25.25;;;4.47;;
72715;SDS011;60830;64.560;40.542;2022-10-17T08:40:51;6.22;;;3.65;;
72715;SDS011;60830;64.560;40.542;2022-10-17T08:43:22;5.85;;;4.07;;
72715;SDS011;60830;64.560;40.542;2022-10-17T08:45:52;16.13;;;5.10;;
72715;SDS011;60830;64.560;40.542;2022-10-17T08:48:20;19.15;;;9.10;;
72715;SDS011;60830;64.560;40.542;2022-10-17T08:53:17;44.50;;;8.35;;
72715;SDS011;60830;64.560;40.542;2022-10-17T08:55:47;20.55;;;9.18;;
72715;SDS011;60830;64.560;40.542;2022-10-17T08:58:23;24.92;;;8.88;;
72715;SDS011;60830;64.560;40.542;2022-10-17T09:01:00;3.30;;;2.72;;
72715;SDS011;60830;64.560;40.542;2022-10-17T09:06:03;2.40;;;2.20;;
72715;SDS011;60830;64.560;40.542;2022-10-17T09:08:44;13.82;;;5.35;;
72715;SDS011;60830;64.560;40.542;2022-10-17T09:13:42;26.05;;;10.02;;
72715;SDS011;60830;64.560;40.542;2022-10-17T09:18:41;31.48;;;11.23;;
72715;SDS011;60830;64.560;40.542;2022-10-17T09:21:18;25.33;;;9.98;;
72715;SDS011;60830;64.560;40.542;2022-10-17T09:23:56;12.50;;;5.38;;
72715;SDS011;60830;64.560;40.542;2022-10-17T09:26:25;16.98;;;8.13;;
72715;SDS011;60830;64.560;40.542;2022-10-17T09:28:52;26.55;;;7.93;;
72715;SDS011;60830;64.560;40.542;2022-10-17T09:33:45;9.13;;;5.05;;
72715;SDS011;60830;64.560;40.542;2022-10-17T09:38:42;9.65;;;4.28;;
72715;SDS011;60830;64.560;40.542;2022-10-17T09:41:12;11.43;;;4.72;;
72715;SDS011;60830;64.560;40.542;2022-10-17T09:43:40;5.75;;;2.92;;
72715;SDS011;60830;64.560;40.542;2022-10-17T09:46:07;12.93;;;5.53;;
72715;SDS011;60830;64.560;40.542;2022-10-17T09:48:40;5.00;;;2.33;;
72715;SDS011;60830;64.560;40.542;2022-10-17T09:51:10;8.73;;;4.07;;
72715;SDS011;60830;64.560;40.542;2022-10-17T09:53:37;6.40;;;2.92;;
72715;SDS011;60830;64.560;40.542;2022-10-17T09:56:07;4.78;;;2.97;;
72715;SDS011;60830;64.560;40.542;2022-10-17T09:58:40;7.10;;;1.95;;
72715;SDS011;60830;64.560;40.542;2022-10-17T10:01:20;3.00;;;2.72;;
72715;SDS011;60830;64.560;40.542;2022-10-17T10:03:47;3.00;;;2.47;;
72715;SDS011;60830;64.560;40.542;2022-10-17T10:06:14;6.68;;;4.07;;
72715;SDS011;60830;64.560;40.542;2022-10-17T10:11:16;4.75;;;2.30;;
72715;SDS011;60830;64.560;40.542;2022-10-17T10:13:42;2.95;;;2.22;;
72715;SDS011;60830;64.560;40.542;2022-10-17T10:18:38;7.15;;;4.07;;
72715;SDS011;60830;64.560;40.542;2022-10-17T10:23:33;5.20;;;3.65;;
72715;SDS011;60830;64.560;40.542;2022-10-17T10:26:13;8.70;;;4.22;;
72715;SDS011;60830;64.560;40.542;2022-10-17T10:28:40;3.45;;;2.22;;
72715;SDS011;60830;64.560;40.542;2022-10-17T10:31:07;8.30;;;3.03;;
72715;SDS011;60830;64.560;40.542;2022-10-17T10:33:35;7.97;;;4.70;;
72715;SDS011;60830;64.560;40.542;2022-10-17T10:36:03;10.48;;;5.75;;
72715;SDS011;60830;64.560;40.542;2022-10-17T10:38:33;7.35;;;2.67;;
72715;SDS011;60830;64.560;40.542;2022-10-17T10:41:06;1.45;;;1.35;;
72715;SDS011;60830;64.560;40.542;2022-10-17T10:43:34;2.97;;;1.95;;
72715;SDS011;60830;64.560;40.542;2022-10-17T10:46:02;6.78;;;3.42;;
72715;SDS011;60830;64.560;40.542;2022-10-17T10:48:33;5.10;;;3.45;;
72715;SDS011;60830;64.560;40.542;2022-10-17T10:55:57;5.75;;;3.35;;
72715;SDS011;60830;64.560;40.542;2022-10-17T11:00:56;1.90;;;1.80;;
72715;SDS011;60830;64.560;40.542;2022-10-17T11:03:28;1.90;;;1.80;;
72715;SDS011;60830;64.560;40.542;2022-10-17T11:05:59;7.32;;;4.05;;
72715;SDS011;60830;64.560;40.542;2022-10-17T11:08:44;4.43;;;2.05;;
72715;SDS011;60830;64.560;40.542;2022-10-17T11:13:47;2.08;;;1.60;;
72715;SDS011;60830;64.560;40.542;2022-10-17T11:16:22;7.07;;;2.33;;
72715;SDS011;60830;64.560;40.542;2022-10-17T11:24:34;10.00;;;5.35;;
72715;SDS011;60830;64.560;40.542;2022-10-17T11:27:03;3.30;;;2.25;;
72715;SDS011;60830;64.560;40.542;2022-10-17T11:29:31;6.63;;;3.90;;
72715;SDS011;60830;64.560;40.542;2022-10-17T11:32:00;3.10;;;2.70;;
72715;SDS011;60830;64.560;40.542;2022-10-17T11:34:29;3.03;;;2.53;;
72715;SDS011;60830;64.560;40.542;2022-10-17T11:37:00;6.63;;;2.63;;
72715;SDS011;60830;64.560;40.542;2022-10-17T11:39:29;2.67;;;2.47;;
72715;SDS011;60830;64.560;40.542;2022-10-17T11:42:03;5.35;;;2.47;;
72715;SDS011;60830;64.560;40.542;2022-10-17T11:44:35;6.53;;;3.25;;
72715;SDS011;60830;64.560;40.542;2022-10-17T11:47:13;2.20;;;1.80;;
72715;SDS011;60830;64.560;40.542;2022-10-17T11:50:01;3.80;;;2.53;;
72715;SDS011;60830;64.560;40.542;2022-10-17T11:54:56;7.57;;;3.78;;
72715;SDS011;60830;64.560;40.542;2022-10-17T12:00:44;5.63;;;3.95;;
72715;SDS011;60830;64.560;40.542;2022-10-17T12:05:39;4.43;;;2.80;;
72715;SDS011;60830;64.560;40.542;2022-10-17T12:15:55;2.85;;;1.50;;
72715;SDS011;60830;64.560;40.542;2022-10-17T12:18:25;1.00;;;1.00;;
72715;SDS011;60830;64.560;40.542;2022-10-17T12:20:57;2.97;;;1.85;;
72715;SDS011;60830;64.560;40.542;2022-10-17T12:23:27;1.90;;;1.65;;
72715;SDS011;60830;64.560;40.542;2022-10-17T12:30:59;4.30;;;1.95;;
72715;SDS011;60830;64.560;40.542;2022-10-17T12:36:35;1.75;;;0.98;;
72715;SDS011;60830;64.560;40.542;2022-10-17T12:46:57;2.75;;;2.30;;
72715;SDS011;60830;64.560;40.542;2022-10-17T12:49:36;3.47;;;2.10;;
72715;SDS011;60830;64.560;40.542;2022-10-17T12:52:14;1.92;;;1.83;;
72715;SDS011;60830;64.560;40.542;2022-10-17T12:54:41;3.55;;;1.98;;
72715;SDS011;60830;64.560;40.542;2022-10-17T12:59:53;2.28;;;1.83;;
72715;SDS011;60830;64.560;40.542;2022-10-17T13:02:20;1.27;;;1.17;;
72715;SDS011;60830;64.560;40.542;2022-10-17T13:04:49;2.15;;;1.73;;
72715;SDS011;60830;64.560;40.542;2022-10-17T13:07:17;2.50;;;1.58;;
72715;SDS011;60830;64.560;40.542;2022-10-17T13:09:43;1.63;;;1.30;;
72715;SDS011;60830;64.560;40.542;2022-10-17T13:12:12;1.10;;;1.02;;
72715;SDS011;60830;64.560;40.542;2022-10-17T13:14:40;3.15;;;1.40;;
72715;SDS011;60830;64.560;40.542;2022-10-17T13:17:19;2.80;;;1.92;;
72715;SDS011;60830;64.560;40.542;2022-10-17T13:19:46;3.42;;;1.80;;
72715;SDS011;60830;64.560;40.542;2022-10-17T13:22:19;3.08;;;2.20;;
72715;SDS011;60830;64.560;40.542;2022-10-17T13:24:46;4.95;;;1.63;;
72715;SDS011;60830;64.560;40.542;2022-10-17T13:29:51;2.40;;;1.67;;
72715;SDS011;60830;64.560;40.542;2022-10-17T13:32:17;2.50;;;1.83;;
72715;SDS011;60830;64.560;40.542;2022-10-17T13:34:43;3.42;;;1.60;;
72715;SDS011;60830;64.560;40.542;2022-10-17T13:37:10;3.03;;;1.77;;
72715;SDS011;60830;64.560;40.542;2022-10-17T13:39:38;2.13;;;1.35;;
72715;SDS011;60830;64.560;40.542;2022-10-17T13:42:05;1.83;;;1.60;;
72715;SDS011;60830;64.560;40.542;2022-10-17T13:44:32;1.20;;;0.73;;
72715;SDS011;60830;64.560;40.542;2022-10-17T13:46:59;1.27;;;1.00;;
72715;SDS011;60830;64.560;40.542;2022-10-17T13:49:31;1.25;;;0.80;;
72715;SDS011;60830;64.560;40.542;2022-10-17T13:51:58;1.15;;;0.80;;
72715;SDS011;60830;64.560;40.542;2022-10-17T13:54:38;1.67;;;1.10;;
72715;SDS011;60830;64.560;40.542;2022-10-17T13:57:13;0.80;;;0.80;;
72715;SDS011;60830;64.560;40.542;2022-10-17T13:59:40;0.77;;;0.75;;
72715;SDS011;60830;64.560;40.542;2022-10-17T14:02:12;1.60;;;0.70;;
72715;SDS011;60830;64.560;40.542;2022-10-17T14:04:39;1.40;;;1.15;;
72715;SDS011;60830;64.560;40.542;2022-10-17T14:07:05;0.80;;;0.80;;
72715;SDS011;60830;64.560;40.542;2022-10-17T14:09:32;1.27;;;1.02;;
72715;SDS011;60830;64.560;40.542;2022-10-17T14:12:02;0.50;;;0.50;;
72715;SDS011;60830;64.560;40.542;2022-10-17T14:14:31;0.60;;;0.60;;
72715;SDS011;60830;64.560;40.542;2022-10-17T14:16:58;0.60;;;0.60;;
72715;SDS011;60830;64.560;40.542;2022-10-17T14:19:30;1.13;;;0.70;;
72715;SDS011;60830;64.560;40.542;2022-10-17T14:22:17;1.00;;;0.77;;
72715;SDS011;60830;64.560;40.542;2022-10-17T14:24:43;0.85;;;0.70;;
72715;SDS011;60830;64.560;40.542;2022-10-17T14:29:55;0.40;;;0.40;;
72715;SDS011;60830;64.560;40.542;2022-10-17T14:32:26;0.70;;;0.70;;
72715;SDS011;60830;64.560;40.542;2022-10-17T14:34:55;1.80;;;0.82;;
72715;SDS011;60830;64.560;40.542;2022-10-17T14:39:49;1.30;;;0.75;;
72715;SDS011;60830;64.560;40.542;2022-10-17T14:42:19;0.50;;;0.43;;
72715;SDS011;60830;64.560;40.542;2022-10-17T14:44:47;0.73;;;0.60;;
72715;SDS011;60830;64.560;40.542;2022-10-17T14:47:16;1.20;;;0.70;;
72715;SDS011;60830;64.560;40.542;2022-10-17T14:49:47;0.50;;;0.50;;
72715;SDS011;60830;64.560;40.542;2022-10-17T14:54:44;1.95;;;0.70;;
72715;SDS011;60830;64.560;40.542;2022-10-17T14:59:40;4.97;;;0.80;;
72715;SDS011;60830;64.560;40.542;2022-10-17T15:02:07;1.70;;;0.60;;
72715;SDS011;60830;64.560;40.542;2022-10-17T15:04:33;0.65;;;0.60;;
72715;SDS011;60830;64.560;40.542;2022-10-17T15:06:59;2.25;;;0.88;;
72715;SDS011;60830;64.560;40.542;2022-10-17T15:09:25;0.50;;;0.50;;
72715;SDS011;60830;64.560;40.542;2022-10-17T15:12:02;1.45;;;0.82;;
72715;SDS011;60830;64.560;40.542;2022-10-17T15:14:29;0.55;;;0.55;;
72715;SDS011;60830;64.560;40.542;2022-10-17T15:16:55;0.63;;;0.63;;
72715;SDS011;60830;64.560;40.542;2022-10-17T15:19:21;1.65;;;1.30;;
72715;SDS011;60830;64.560;40.542;2022-10-17T15:21:47;1.08;;;0.98;;
72715;SDS011;60830;64.560;40.542;2022-10-17T15:24:13;0.63;;;0.63;;
72715;SDS011;60830;64.560;40.542;2022-10-17T15:26:40;1.30;;;0.93;;
72715;SDS011;60830;64.560;40.542;2022-10-17T15:29:06;0.80;;;0.80;;
72715;SDS011;60830;64.560;40.542;2022-10-17T15:31:32;1.20;;;1.00;;
72715;SDS011;60830;64.560;40.542;2022-10-17T15:33:58;3.83;;;1.10;;
72715;SDS011;60830;64.560;40.542;2022-10-17T15:36:40;1.70;;;0.90;;
72715;SDS011;60830;64.560;40.542;2022-10-17T15:39:06;1.98;;;1.63;;
72715;SDS011;60830;64.560;40.542;2022-10-17T15:41:32;3.40;;;2.10;;
72715;SDS011;60830;64.560;40.542;2022-10-17T15:43:59;5.35;;;3.55;;
72715;SDS011;60830;64.560;40.542;2022-10-17T15:46:29;3.13;;;1.80;;
72715;SDS011;60830;64.560;40.542;2022-10-17T15:48:55;2.17;;;1.98;;
72715;SDS011;60830;64.560;40.542;2022-10-17T15:51:22;2.47;;;1.95;;
72715;SDS011;60830;64.560;40.542;2022-10-17T15:53:48;1.80;;;1.40;;
72715;SDS011;60830;64.560;40.542;2022-10-17T15:56:18;3.80;;;2.05;;
72715;SDS011;60830;64.560;40.542;2022-10-17T15:58:45;6.45;;;2.35;;
72715;SDS011;60830;64.560;40.542;2022-10-17T16:01:17;4.55;;;2.78;;
72715;SDS011;60830;64.560;40.542;2022-10-17T16:03:43;5.63;;;2.72;;
72715;SDS011;60830;64.560;40.542;2022-10-17T16:06:12;5.35;;;2.83;;
72715;SDS011;60830;64.560;40.542;2022-10-17T16:08:38;4.07;;;2.95;;
72715;SDS011;60830;64.560;40.542;2022-10-17T16:11:04;6.22;;;2.78;;
72715;SDS011;60830;64.560;40.542;2022-10-17T16:13:30;4.80;;;3.13;;
72715;SDS011;60830;64.560;40.542;2022-10-17T16:15:56;7.55;;;3.10;;
72715;SDS011;60830;64.560;40.542;2022-10-17T16:18:22;6.10;;;2.67;;
72715;SDS011;60830;64.560;40.542;2022-10-17T16:20:48;7.95;;;3.53;;
72715;SDS011;60830;64.560;40.542;2022-10-17T16:23:14;7.38;;;3.00;;
72715;SDS011;60830;64.560;40.542;2022-10-17T16:25:40;4.47;;;2.65;;
72715;SDS011;60830;64.560;40.542;2022-10-17T16:28:07;5.28;;;2.03;;
72715;SDS011;60830;64.560;40.542;2022-10-17T16:30:33;4.30;;;2.15;;
72715;SDS011;60830;64.560;40.542;2022-10-17T16:33:02;4.88;;;2.47;;
72715;SDS011;60830;64.560;40.542;2022-10-17T16:35:29;6.03;;;2.95;;
72715;SDS011;60830;64.560;40.542;2022-10-17T16:37:55;6.20;;;3.05;;